createdAt,value
2022-09-12T00:02:54.412Z,56
2022-09-12T00:08:34.315Z,52
2022-09-12T00:14:14.717Z,56
2022-09-12T00:19:54.407Z,46
2022-09-12T00:25:34.312Z,56
2022-09-12T00:31:15.308Z,44
2022-09-12T00:36:55.687Z,56
2022-09-12T00:42:35.960Z,48
2022-09-12T00:48:15.973Z,42
2022-09-12T00:59:36.004Z,46
2022-09-12T01:05:15.926Z,54
2022-09-12T01:10:55.746Z,46
2022-09-12T01:16:36.231Z,60
2022-09-12T01:22:17.035Z,46
2022-09-12T01:27:56.753Z,46
2022-09-12T01:33:36.939Z,46
2022-09-12T01:39:17.843Z,50
2022-09-12T01:44:58.914Z,48
2022-09-12T01:50:38.699Z,54
2022-09-12T01:56:18.858Z,56
2022-09-12T02:01:58.878Z,52
2022-09-12T02:07:38.982Z,46
2022-09-12T02:13:18.829Z,46
2022-09-12T02:18:58.820Z,40
2022-09-12T02:24:38.785Z,52
2022-09-12T02:30:18.610Z,44
2022-09-12T02:35:58.692Z,58
2022-09-12T02:41:38.586Z,58
2022-09-12T02:47:18.374Z,56
2022-09-12T02:52:58.272Z,48
2022-09-12T02:58:38.049Z,46
2022-09-12T03:04:18.141Z,56
2022-09-12T03:09:59.481Z,46
2022-09-12T03:15:39.575Z,48
2022-09-12T03:21:19.968Z,50
2022-09-12T03:27:00.581Z,52
2022-09-12T03:32:41.205Z,44
2022-09-12T03:38:21.175Z,46
2022-09-12T03:44:01.410Z,44
2022-09-12T03:49:41.455Z,44
2022-09-12T03:55:21.598Z,42
2022-09-12T04:01:01.881Z,32
2022-09-12T04:06:42.617Z,56
2022-09-12T04:12:23.446Z,46
2022-09-12T04:18:06.562Z,46
2022-09-12T04:23:47.365Z,44
2022-09-12T04:29:27.733Z,56
2022-09-12T04:35:08.620Z,56
2022-09-12T04:40:49.358Z,42
2022-09-12T04:46:29.947Z,40
2022-09-12T04:52:12.406Z,54
2022-09-12T04:57:52.761Z,48
2022-09-12T05:03:35.970Z,54
2022-09-12T05:14:57.948Z,56
2022-09-12T05:20:38.181Z,48
2022-09-12T05:26:21.125Z,56
2022-09-12T05:32:01.494Z,52
2022-09-12T05:37:41.860Z,46
2022-09-12T05:43:22.276Z,52
2022-09-12T05:49:03.331Z,56
2022-09-12T05:54:43.869Z,44
2022-09-12T06:00:33.500Z,46
2022-09-12T06:06:14.513Z,56
2022-09-12T06:11:54.790Z,44
2022-09-12T06:17:34.692Z,50
2022-09-12T06:23:15.266Z,54
2022-09-12T06:28:55.437Z,48
2022-09-12T06:34:35.935Z,44
2022-09-12T06:40:16.585Z,46
2022-09-12T06:45:57.485Z,44
2022-09-12T06:51:37.913Z,46
2022-09-12T06:57:18.098Z,46
2022-09-12T07:13:42.675Z,56
2022-09-12T07:19:22.992Z,62
2022-09-12T07:25:03.044Z,60
2022-09-12T07:30:43.291Z,62
2022-09-12T07:36:23.980Z,48
2022-09-12T07:42:04.429Z,44
2022-09-12T07:47:45.181Z,56
2022-09-12T07:53:25.035Z,58
2022-09-12T07:59:07.014Z,58
2022-09-12T08:04:47.111Z,60
2022-09-12T08:10:26.715Z,56
2022-09-12T08:16:08.951Z,22
2022-09-12T08:21:50.329Z,8
2022-09-12T08:27:31.138Z,6
2022-09-12T08:33:11.565Z,8
2022-09-12T08:38:51.827Z,8
2022-09-12T08:44:40.393Z,4
2022-09-12T08:50:20.420Z,26
2022-09-12T08:56:08.035Z,14
2022-09-12T09:03:27.573Z,8
2022-09-12T09:09:10.652Z,10
2022-09-12T09:14:49.897Z,2
2022-09-12T09:20:39.024Z,0
2022-09-12T09:26:38.162Z,6
2022-09-12T09:32:17.755Z,26
2022-09-12T09:38:02.890Z,4
2022-09-12T09:44:01.258Z,2
2022-09-12T09:49:48.100Z,0
2022-09-12T09:55:30.460Z,48
2022-09-12T10:01:11.214Z,8
2022-09-12T10:06:51.994Z,6
2022-09-12T10:12:33.035Z,2
2022-09-12T10:18:15.920Z,0
2022-09-12T10:23:59.878Z,10
2022-09-12T10:29:39.860Z,0
2022-09-12T10:35:20.764Z,2
2022-09-12T10:41:01.305Z,4
2022-09-12T10:46:44.005Z,2
2022-09-12T10:52:24.877Z,0
2022-09-12T10:58:17.072Z,0
2022-09-12T11:04:05.447Z,2
2022-09-12T11:09:55.001Z,2
2022-09-12T11:15:35.719Z,0
2022-09-12T11:21:19.052Z,0
2022-09-12T11:26:59.150Z,6
2022-09-12T11:32:39.749Z,0
2022-09-12T11:38:20.177Z,2
2022-09-12T11:44:00.582Z,2
2022-09-12T11:49:40.567Z,4
2022-09-12T11:55:24.466Z,0
2022-09-12T12:01:22.815Z,0
2022-09-12T12:07:03.977Z,0
2022-09-12T12:12:44.498Z,4
2022-09-12T12:18:25.344Z,0
2022-09-12T12:24:05.683Z,2
2022-09-12T12:29:48.719Z,0
2022-09-12T12:35:29.200Z,2
2022-09-12T12:41:09.518Z,8
2022-09-12T12:47:12.070Z,0
2022-09-12T12:52:55.750Z,2
2022-09-12T12:59:14.931Z,0
2022-09-12T13:04:55.340Z,4
2022-09-12T13:10:35.577Z,6
2022-09-12T14:12:04.378Z,2
2022-09-12T14:17:44.575Z,12
2022-09-12T14:23:24.775Z,50
2022-09-12T14:29:06.121Z,56
2022-09-12T14:34:46.372Z,66
2022-09-12T14:40:26.488Z,60
2022-09-12T14:46:07.856Z,64
2022-09-12T14:51:52.070Z,66
2022-09-12T14:57:33.066Z,64
2022-09-12T15:03:15.458Z,60
2022-09-12T15:08:56.059Z,54
2022-09-12T15:14:36.182Z,60
2022-09-12T15:20:16.443Z,56
2022-09-12T15:25:56.712Z,54
2022-09-12T15:48:02.156Z,62
2022-09-12T15:53:42.742Z,52
2022-09-12T15:59:23.530Z,62
2022-09-12T16:05:03.733Z,56
2022-09-12T16:10:43.818Z,64
2022-09-12T16:16:28.153Z,56
2022-09-12T16:22:08.577Z,56
2022-09-12T16:27:49.382Z,50
2022-09-12T16:33:30.242Z,66
2022-09-12T16:39:10.832Z,62
2022-09-12T16:44:51.001Z,58
2022-09-12T16:50:31.530Z,52
2022-09-12T16:56:20.448Z,46
2022-09-12T17:02:01.201Z,48
2022-09-12T17:07:41.954Z,58
2022-09-12T17:13:22.589Z,48
2022-09-12T17:19:02.849Z,48
2022-09-12T17:24:43.812Z,46
2022-09-12T17:30:24.110Z,46
2022-09-12T17:36:04.360Z,60
2022-09-12T17:47:25.101Z,52
2022-09-12T17:53:05.775Z,62
2022-09-12T17:58:46.622Z,58
2022-09-12T18:04:26.771Z,58
2022-09-12T18:10:06.831Z,56
2022-09-12T18:15:48.038Z,54
2022-09-12T18:21:28.684Z,52
2022-09-12T18:27:08.933Z,50
2022-09-12T18:32:51.675Z,56
2022-09-12T18:38:32.126Z,56
2022-09-12T18:44:15.331Z,54
2022-09-12T18:49:55.642Z,56
2022-09-12T18:55:36.004Z,54
2022-09-12T19:01:17.877Z,56
2022-09-12T19:06:59.209Z,56
2022-09-12T19:12:39.435Z,54
2022-09-12T19:18:22.692Z,60
2022-09-12T19:24:03.301Z,58
2022-09-12T19:29:44.137Z,58
2022-09-12T19:35:24.707Z,56
2022-09-12T19:41:05.895Z,56
2022-09-12T19:46:47.591Z,52
2022-09-12T19:52:28.407Z,50
2022-09-12T19:58:08.695Z,48
2022-09-12T20:03:49.695Z,48
2022-09-12T20:09:30.037Z,56
2022-09-12T20:15:10.760Z,46
2022-09-12T20:20:51.122Z,38
2022-09-12T20:26:31.923Z,52
2022-09-12T20:32:13.144Z,58
2022-09-12T20:37:53.578Z,46
2022-09-12T20:43:36.513Z,56
2022-09-12T20:49:17.353Z,54
2022-09-12T20:55:00.954Z,50
2022-09-12T21:00:41.252Z,48
2022-09-12T21:06:24.402Z,46
2022-09-12T21:12:04.927Z,44
2022-09-12T21:23:25.598Z,66
2022-09-12T21:29:06.516Z,52
2022-09-12T21:34:46.964Z,56
2022-09-12T21:40:28.038Z,56
2022-09-12T21:46:09.473Z,52
2022-09-12T21:51:50.871Z,56
2022-09-12T21:57:31.319Z,54
2022-09-12T22:03:11.824Z,60
2022-09-12T22:08:52.381Z,56
2022-09-12T22:14:32.684Z,46
2022-09-12T22:20:12.988Z,48
2022-09-12T22:25:53.631Z,46
2022-09-12T22:31:34.274Z,52
2022-09-12T22:37:14.787Z,56
2022-09-12T22:42:57.083Z,56
2022-09-12T22:48:37.658Z,54
2022-09-12T22:54:17.774Z,56
2022-09-12T22:59:58.318Z,52
2022-09-12T23:05:39.735Z,48
2022-09-12T23:11:21.353Z,46
2022-09-12T23:17:01.795Z,44
2022-09-12T23:22:42.674Z,52
2022-09-12T23:28:23.196Z,46
2022-09-12T23:39:50.056Z,58
2022-09-12T23:45:32.713Z,56
2022-09-12T23:51:13.104Z,48
2022-09-12T23:56:53.735Z,58
